»·PEaware :: N2442P KCMA-KAVX

N2442P :: KCMA-KAVX

FLIGHT INFORMATION

Flight Status: Arrived
Operator: Privately registered:
United States
More flights under this callsign
Pilot: Ken Q. (14290)
Aircraft: MOONEY M-20K/M ENCORE BRAVO
(M20T)
More flights by this aircraft type
Origin: KCMA Camarillo
United States
Destination: KAVX Catalina
United States
More flights between these airports :: More routes between these airports
Route: KCMA VTU SXC KAVX
File this flight plan on PilotEdge
Remarks: X
Altitude:
(Current/Filed)
5,500ft
Speed:
(Current/Filed)
165kts
Departed: 03-Dec-19 02:45 PM
Arrived: 03-Dec-19 03:13 PM
Distance/Time
Traveled:
59nm/0:27
Distance/Time
To Go:
Arrived

Flight Plot

Page will automatically refresh every two minutes.

Flight plan parsing failed; only flown route is shown


Map Options




Map Legend


Flown Route
Filed Route
Departure Airport
Arrival Airport
Navaid (VOR, NDB)
Fix

Horizontal Profiles

Position Reports

Time Latitude Longitude Heading Altitude Ground
Speed
03-Dec-19 14:20 34.210536 -119.077517 273 78ft 0kts
03-Dec-19 14:21 34.210536 -119.077517 273 78ft 0kts
03-Dec-19 14:22 34.210536 -119.077517 273 78ft 0kts
03-Dec-19 14:23 34.210536 -119.077517 273 78ft 0kts
03-Dec-19 14:24 34.210536 -119.077517 273 78ft 0kts
03-Dec-19 14:25 34.210536 -119.077517 273 78ft 0kts
03-Dec-19 14:26 34.210536 -119.077517 273 78ft 0kts
03-Dec-19 14:27 34.210536 -119.077517 273 78ft 0kts
03-Dec-19 14:28 34.210536 -119.077517 273 78ft 0kts
03-Dec-19 14:29 34.210536 -119.077517 273 78ft 0kts
03-Dec-19 14:30 34.210536 -119.077517 273 78ft 0kts
03-Dec-19 14:31 34.210536 -119.077517 273 78ft 0kts
03-Dec-19 14:32 34.210536 -119.077517 273 78ft 0kts
03-Dec-19 14:33 34.210536 -119.077517 273 78ft 0kts
03-Dec-19 14:34 34.210536 -119.077519 273 78ft 0kts
03-Dec-19 14:35 34.210536 -119.077520 273 78ft 0kts
03-Dec-19 14:36 34.210536 -119.077521 273 78ft 0kts
03-Dec-19 14:37 34.210822 -119.077673 311 78ft 6kts
03-Dec-19 14:38 34.210932 -119.081219 270 78ft 10kts
03-Dec-19 14:39 34.211129 -119.084556 339 78ft 0kts
03-Dec-19 14:40 34.211130 -119.084556 339 78ft 0kts
03-Dec-19 14:41 34.211133 -119.084557 339 78ft 0kts
03-Dec-19 14:42 34.211157 -119.084567 342 78ft 3kts
03-Dec-19 14:43 34.213676 -119.084909 271 78ft 0kts
03-Dec-19 14:44 34.214156 -119.109523 274 413ft 113kts
03-Dec-19 14:45 34.189021 -119.127893 163 978ft 145kts
03-Dec-19 14:46 34.150005 -119.109471 162 1479ft 150kts
03-Dec-19 14:47 34.110429 -119.094259 161 1961ft 148kts
03-Dec-19 14:48 34.075429 -119.068803 145 2451ft 147kts
03-Dec-19 14:49 34.041197 -119.041911 146 2930ft 146kts
03-Dec-19 14:50 34.007626 -119.015539 145 3410ft 142kts
03-Dec-19 14:51 33.974628 -118.988845 141 3901ft 142kts
03-Dec-19 14:52 33.943654 -118.959328 140 4387ft 142kts
03-Dec-19 14:53 33.912651 -118.929640 140 4873ft 143kts
03-Dec-19 14:54 33.881414 -118.899642 140 5367ft 143kts
03-Dec-19 14:55 33.848497 -118.867927 140 5488ft 160kts
03-Dec-19 14:56 33.812737 -118.833426 140 5485ft 167kts
03-Dec-19 14:57 33.776511 -118.798238 140 5485ft 166kts
03-Dec-19 14:58 33.741181 -118.762901 140 5488ft 165kts
03-Dec-19 14:59 33.705729 -118.727430 140 5486ft 165kts
03-Dec-19 15:00 33.673363 -118.695067 140 5484ft 162kts
03-Dec-19 15:01 33.637503 -118.659260 139 5064ft 167kts
03-Dec-19 15:02 33.603037 -118.624966 139 4653ft 157kts
03-Dec-19 15:03 33.569886 -118.592138 140 4248ft 152kts
03-Dec-19 15:04 33.537318 -118.559983 139 3845ft 149kts
03-Dec-19 15:05 33.506087 -118.529366 140 3435ft 142kts
03-Dec-19 15:06 33.472713 -118.513815 166 3071ft 141kts
03-Dec-19 15:07 33.433889 -118.507239 173 2677ft 141kts
03-Dec-19 15:08 33.399205 -118.495049 149 2586ft 117kts
03-Dec-19 15:09 33.380462 -118.473890 75 2565ft 96kts
03-Dec-19 15:10 33.387743 -118.442790 49 2388ft 94kts
03-Dec-19 15:11 33.402165 -118.420513 53 1634ft 72kts
03-Dec-19 15:12 33.405146 -118.415362 109 1605ft 6kts
03-Dec-19 15:13 33.404363 -118.416130 236 1605ft 8kts
03-Dec-19 15:14 33.403645 -118.415596 93 1605ft 3kts
03-Dec-19 15:15 33.403602 -118.415492 140 1605ft 1kts
03-Dec-19 15:17 33.403701 -118.415589 146 1605ft 0kts

Navigation Log

Ident Type
Flight plan parsing failed, navigation log unavailable